Impacts TAF Board
For situational awareness. Not to be used for flight planning purposes.
IDs:

KTPA - Tampa Intl Arpt, FL, US

Issued at 0258 UTC 19 Aug 2019
Updated at 0526 UTC 19 Aug 2019
Potential Impact None Slight Moderate High
Time0453Z 19/06Z 19/07Z 19/08Z 19/09Z 19/10Z 19/11Z 19/12Z 19/13Z 19/14Z 19/15Z 19/16Z 19/17Z 19/18Z>>
Type OBS PRVL PRVL PRVL PRVL PRVL PRVL PRVL PRVL PRVL PRVL PRVL PRVL PRVL
VIS 10 >6 >6 >6 >6 >6 >6 >6 >6 >6 >6 >6 >6 >6
CIG -- -- -- -- -- -- -- -- -- -- -- -- -- --
Cover SCT SCT SCT SCT SCT SCT SCT SCT SCT SCT SCT SCT SCT SCT
FltCat VFR VFR VFR VFR VFR VFR VFR VFR VFR VFR VFR VFR VFR VFR
WX -- -- -- -- -- -- -- -- -- -- -- -- -- --
WDir 110 VRB VRB VRB VRB VRB VRB VRB VRB 160 160 160 160 220
WSpd 4 5 5 5 5 5 5 5 5 6 6 6 6 7
WGst -- -- -- -- -- -- -- -- -- -- -- -- -- --
Raw TAF
KTPA 190258Z 1903/2006 VRB05KT P6SM FEW020 SCT250
  FM191400 16006KT P6SM SCT030 SCT250
  FM191800 22007KT P6SM SCT035 SCT250
  FM192000 26007KT P6SM VCTS SCT035CB SCT250
  FM200100 VRB06KT P6SM SCT040 BKN250


Raw METAR
KTPA 190453Z 11004KT 10SM SCT280 26/23 A3012 RMK AO2 SLP197 T02560233 403110250 $
KTPA 190353Z 01003KT 10SM SCT280 26/23 A3010 RMK AO2 SLP191 T02560233 $
KTPA 190253Z 01004KT 10SM FEW280 26/23 A3010 RMK AO2 SLP192 T02610233 51009 $

METAR Board
Radar Display
Forecast Discussion
For situational awareness. Not to be used for flight planning purposes.